createdAt,value
2018-02-09T00:01:36.605Z,56.10
2018-02-09T00:04:04.180Z,56.00
2018-02-09T00:06:31.907Z,56.00
2018-02-09T00:08:59.422Z,55.90
2018-02-09T00:11:27.056Z,56.00
2018-02-09T00:13:54.592Z,55.90
2018-02-09T00:16:22.585Z,55.90
2018-02-09T00:18:50.235Z,56.00
2018-02-09T00:21:18.165Z,55.90
2018-02-09T00:23:45.971Z,55.90
2018-02-09T00:26:14.092Z,55.90
2018-02-09T00:28:41.794Z,55.90
2018-02-09T00:31:09.788Z,55.90
2018-02-09T00:33:37.571Z,55.90
2018-02-09T00:36:05.132Z,55.90
2018-02-09T00:38:32.749Z,55.90
2018-02-09T00:41:01.263Z,55.90
2018-02-09T00:43:28.891Z,55.80
2018-02-09T00:45:57.109Z,55.90
2018-02-09T00:48:24.664Z,55.90
2018-02-09T00:50:52.291Z,55.90
2018-02-09T00:53:19.987Z,55.90
2018-02-09T00:55:47.641Z,55.90
2018-02-09T00:58:15.285Z,55.90
2018-02-09T01:00:42.972Z,55.80
2018-02-09T01:03:10.657Z,55.90
2018-02-09T01:05:38.250Z,55.90
2018-02-09T01:08:07.149Z,55.90
2018-02-09T01:10:34.811Z,55.90
2018-02-09T01:13:02.450Z,55.90
2018-02-09T01:15:30.153Z,55.90
2018-02-09T01:17:57.773Z,55.90
2018-02-09T01:20:25.381Z,55.90
2018-02-09T01:22:55.354Z,55.80
2018-02-09T01:25:23.298Z,55.90
2018-02-09T01:27:50.879Z,55.90
2018-02-09T01:30:19.376Z,55.80
2018-02-09T01:33:01.122Z,55.80
2018-02-09T01:35:31.850Z,55.90
2018-02-09T01:38:06.036Z,55.90
2018-02-09T01:40:37.056Z,55.80
2018-02-09T01:43:04.923Z,55.90
2018-02-09T01:45:42.957Z,55.80
2018-02-09T01:48:10.515Z,55.80
2018-02-09T01:50:38.311Z,55.80
2018-02-09T01:53:05.878Z,55.80
2018-02-09T01:55:33.930Z,55.90
2018-02-09T01:58:01.500Z,55.90
2018-02-09T02:00:29.566Z,55.90
2018-02-09T02:02:57.190Z,55.90
2018-02-09T02:05:24.721Z,55.90
2018-02-09T02:07:52.369Z,55.90
2018-02-09T02:10:20.439Z,55.90
2018-02-09T02:12:48.139Z,55.80
2018-02-09T02:15:15.741Z,55.90
2018-02-09T02:17:43.276Z,55.90
2018-02-09T02:20:11.169Z,55.90
2018-02-09T02:22:39.170Z,55.90
2018-02-09T02:25:06.835Z,55.90
2018-02-09T02:27:34.558Z,55.90
2018-02-09T02:30:02.537Z,55.90
2018-02-09T02:32:30.211Z,55.80
2018-02-09T02:34:57.850Z,55.80
2018-02-09T02:37:25.915Z,55.90
2018-02-09T02:39:55.239Z,55.90
2018-02-09T02:42:23.183Z,55.80
2018-02-09T02:44:51.202Z,55.80
2018-02-09T02:47:18.854Z,55.80
2018-02-09T02:49:49.162Z,55.80
2018-02-09T02:52:16.855Z,55.80
2018-02-09T02:54:44.491Z,55.80
2018-02-09T02:57:12.174Z,55.80
2018-02-09T02:59:39.820Z,55.80
2018-02-09T03:02:07.469Z,55.90
2018-02-09T03:04:35.120Z,55.80
2018-02-09T03:07:02.848Z,55.80
2018-02-09T03:09:30.494Z,55.80
2018-02-09T03:11:58.550Z,55.90
2018-02-09T03:14:26.175Z,55.90
2018-02-09T03:16:53.845Z,55.90
2018-02-09T03:19:21.537Z,55.80
2018-02-09T03:21:49.359Z,55.80
2018-02-09T03:24:16.894Z,55.80
2018-02-09T03:26:44.514Z,55.80
2018-02-09T03:29:12.141Z,55.80
2018-02-09T03:31:39.806Z,55.80
2018-02-09T03:34:07.507Z,55.80
2018-02-09T03:36:35.822Z,55.80
2018-02-09T03:39:03.858Z,55.80
2018-02-09T03:41:31.477Z,55.80
2018-02-09T03:43:59.103Z,55.90
2018-02-09T03:46:26.960Z,55.90
2018-02-09T03:48:54.506Z,55.90
2018-02-09T03:51:22.109Z,55.80
2018-02-09T03:53:49.823Z,55.80
2018-02-09T03:56:17.442Z,55.90
2018-02-09T03:58:45.066Z,55.90
2018-02-09T04:01:12.822Z,55.80
2018-02-09T04:03:40.890Z,55.80
2018-02-09T04:06:13.407Z,55.80
2018-02-09T04:08:41.036Z,55.80
2018-02-09T04:11:08.861Z,55.80
2018-02-09T04:13:37.201Z,55.70
2018-02-09T04:16:04.880Z,55.80
2018-02-09T04:18:32.548Z,55.70
2018-02-09T04:21:07.110Z,55.80
2018-02-09T04:23:34.679Z,55.80
2018-02-09T04:26:02.647Z,55.80
2018-02-09T04:28:30.591Z,55.80
2018-02-09T04:30:58.214Z,55.80
2018-02-09T04:33:25.837Z,55.80
2018-02-09T04:35:53.385Z,55.80
2018-02-09T04:38:21.130Z,55.80
2018-02-09T04:40:48.656Z,55.70
2018-02-09T04:43:16.342Z,55.70
2018-02-09T04:45:43.930Z,55.80
2018-02-09T04:48:11.915Z,55.80
2018-02-09T04:50:39.864Z,55.80
2018-02-09T04:53:08.683Z,55.80
2018-02-09T04:55:44.466Z,55.80
2018-02-09T04:58:12.358Z,55.70
2018-02-09T05:00:49.112Z,55.70
2018-02-09T05:03:16.863Z,55.70
2018-02-09T05:05:44.877Z,55.70
2018-02-09T05:08:12.660Z,55.70
2018-02-09T05:10:40.209Z,55.80
2018-02-09T05:13:08.039Z,55.80
2018-02-09T05:15:35.582Z,55.80
2018-02-09T05:18:03.270Z,55.80
2018-02-09T05:20:31.270Z,55.80
2018-02-09T05:22:58.974Z,55.80
2018-02-09T05:25:26.746Z,55.80
2018-02-09T05:27:54.269Z,55.70
2018-02-09T05:30:22.098Z,55.80
2018-02-09T05:32:49.675Z,55.80
2018-02-09T05:35:17.846Z,55.80
2018-02-09T05:37:45.765Z,55.80
2018-02-09T05:40:13.575Z,55.80
2018-02-09T05:42:41.150Z,55.90
2018-02-09T05:45:08.721Z,55.90
2018-02-09T05:47:36.509Z,55.90
2018-02-09T05:50:04.125Z,55.90
2018-02-09T05:52:42.995Z,55.90
2018-02-09T05:55:10.682Z,55.90
2018-02-09T05:57:38.241Z,55.80
2018-02-09T06:00:07.395Z,55.90
2018-02-09T06:02:35.034Z,55.90
2018-02-09T06:05:02.651Z,55.90
2018-02-09T06:07:30.189Z,55.90
2018-02-09T06:09:58.041Z,56.00
2018-02-09T06:12:25.646Z,55.90
2018-02-09T06:14:53.162Z,55.90
2018-02-09T06:17:20.806Z,56.00
2018-02-09T06:19:49.243Z,56.00
2018-02-09T06:22:19.686Z,55.90
2018-02-09T06:24:47.238Z,55.90
2018-02-09T06:27:15.234Z,55.90
2018-02-09T06:29:42.882Z,55.90
2018-02-09T06:32:10.501Z,55.90
2018-02-09T06:34:38.065Z,56.00
2018-02-09T06:37:05.964Z,55.90
2018-02-09T06:39:33.636Z,56.00
2018-02-09T06:42:01.295Z,56.00
2018-02-09T06:44:31.408Z,56.00
2018-02-09T06:46:59.058Z,56.00
2018-02-09T06:49:26.744Z,56.00
2018-02-09T06:51:54.383Z,56.10
2018-02-09T06:54:22.112Z,56.00
2018-02-09T06:56:49.700Z,56.10
2018-02-09T06:59:17.394Z,56.00
2018-02-09T07:01:45.052Z,56.10
2018-02-09T07:04:12.719Z,56.10
2018-02-09T07:06:40.345Z,56.10
2018-02-09T07:09:13.331Z,56.00
2018-02-09T07:11:41.562Z,56.00
2018-02-09T07:14:09.316Z,56.00
2018-02-09T07:16:36.997Z,56.10
2018-02-09T07:19:04.667Z,56.10
2018-02-09T07:21:32.336Z,56.10
2018-02-09T07:24:00.322Z,56.10
2018-02-09T07:26:28.004Z,56.10
2018-02-09T07:28:55.652Z,56.10
2018-02-09T07:31:23.289Z,56.00
2018-02-09T07:33:51.468Z,56.10
2018-02-09T07:36:19.088Z,56.10
2018-02-09T07:38:46.676Z,56.10
2018-02-09T07:41:14.412Z,56.10
2018-02-09T07:43:42.251Z,56.10
2018-02-09T07:46:09.902Z,56.10
2018-02-09T07:48:37.622Z,56.10
2018-02-09T07:51:05.587Z,55.90
2018-02-09T07:53:33.382Z,55.90
2018-02-09T07:56:00.957Z,55.90
2018-02-09T07:58:28.593Z,55.90
2018-02-09T08:00:56.264Z,55.90
2018-02-09T08:03:23.952Z,55.80
2018-02-09T08:05:51.598Z,55.80
2018-02-09T08:08:19.270Z,55.80
2018-02-09T08:10:47.242Z,55.70
2018-02-09T08:13:14.979Z,55.60
2018-02-09T08:15:43.270Z,55.60
2018-02-09T08:18:31.431Z,55.60
2018-02-09T08:21:24.722Z,55.50
2018-02-09T08:23:53.510Z,55.50
2018-02-09T08:26:21.352Z,55.50
2018-02-09T08:28:48.931Z,55.50
2018-02-09T08:31:16.951Z,55.40
2018-02-09T08:33:44.564Z,55.40
2018-02-09T08:36:12.188Z,55.40
2018-02-09T08:38:39.739Z,55.40
2018-02-09T08:41:07.401Z,55.40
2018-02-09T08:43:35.068Z,55.30
2018-02-09T08:46:02.722Z,55.30
2018-02-09T08:48:30.512Z,55.40
2018-02-09T08:50:58.099Z,55.50
2018-02-09T08:53:26.073Z,55.40
2018-02-09T08:55:53.759Z,55.40
2018-02-09T08:58:21.409Z,55.40
2018-02-09T09:00:49.080Z,55.40
2018-02-09T09:03:16.779Z,55.40
2018-02-09T09:05:44.392Z,55.50
2018-02-09T09:08:12.036Z,55.50
2018-02-09T09:10:39.875Z,55.50
2018-02-09T09:13:07.432Z,55.50
2018-02-09T09:15:35.040Z,55.60
2018-02-09T09:18:02.662Z,55.60
2018-02-09T09:20:30.289Z,55.60
2018-02-09T09:23:01.466Z,55.60
2018-02-09T09:25:28.996Z,55.60
2018-02-09T09:27:56.988Z,55.60
2018-02-09T09:30:26.126Z,55.60
2018-02-09T09:32:53.817Z,55.60
2018-02-09T09:35:21.526Z,55.70
2018-02-09T09:37:49.480Z,55.70
2018-02-09T09:40:17.141Z,55.70
2018-02-09T09:42:44.875Z,55.70
2018-02-09T09:45:12.909Z,55.90
2018-02-09T09:47:40.594Z,55.90
2018-02-09T09:50:13.526Z,55.90
2018-02-09T09:52:41.080Z,55.90
2018-02-09T09:55:09.066Z,56.00
2018-02-09T09:57:36.691Z,56.00
2018-02-09T10:00:04.270Z,56.10
2018-02-09T10:02:40.098Z,56.20
2018-02-09T10:05:07.715Z,56.20
2018-02-09T10:07:35.346Z,56.30
2018-02-09T10:10:02.951Z,56.30
2018-02-09T10:12:30.519Z,56.40
2018-02-09T10:14:58.154Z,56.40
2018-02-09T10:17:25.787Z,56.40
2018-02-09T10:19:53.502Z,56.70
2018-02-09T10:22:25.412Z,56.50
2018-02-09T10:24:53.131Z,56.50
2018-02-09T10:27:20.765Z,56.10
2018-02-09T10:29:48.550Z,55.80
2018-02-09T10:32:16.132Z,55.50
2018-02-09T10:34:43.711Z,55.00
2018-02-09T10:37:11.442Z,54.50
2018-02-09T10:39:39.049Z,53.90
2018-02-09T10:42:06.704Z,53.40
2018-02-09T10:44:34.475Z,52.90
2018-02-09T10:47:02.043Z,52.30
2018-02-09T10:49:29.693Z,52.20
2018-02-09T10:52:01.478Z,51.50
2018-02-09T10:54:29.096Z,51.50
2018-02-09T10:56:56.868Z,51.40
2018-02-09T10:59:24.441Z,51.20
2018-02-09T11:01:52.050Z,51.10
2018-02-09T11:04:19.564Z,51.00
2018-02-09T11:06:47.275Z,50.80
2018-02-09T11:09:14.841Z,50.80
2018-02-09T11:11:42.646Z,50.60
2018-02-09T11:14:10.199Z,50.50
2018-02-09T11:16:37.860Z,50.40
2018-02-09T11:19:05.486Z,50.20
2018-02-09T11:21:33.415Z,50.20
2018-02-09T11:24:01.078Z,50.10
2018-02-09T11:26:29.124Z,49.70
2018-02-09T11:29:04.890Z,49.70
2018-02-09T11:31:32.703Z,49.70
2018-02-09T11:34:12.487Z,49.40
2018-02-09T11:36:41.294Z,49.40
2018-02-09T11:39:08.878Z,49.50
2018-02-09T11:41:36.926Z,49.40
2018-02-09T11:44:04.526Z,49.30
2018-02-09T11:46:32.474Z,49.00
2018-02-09T11:49:00.199Z,49.00
2018-02-09T11:51:27.843Z,48.90
2018-02-09T11:53:55.545Z,48.90
2018-02-09T11:56:23.175Z,48.90
2018-02-09T11:58:50.874Z,48.80
2018-02-09T12:01:18.499Z,48.70
2018-02-09T12:03:49.642Z,48.80
2018-02-09T12:06:17.347Z,48.80
2018-02-09T12:08:44.940Z,48.60
2018-02-09T12:11:12.635Z,48.50
2018-02-09T12:13:40.312Z,48.50
2018-02-09T12:16:08.010Z,48.40
2018-02-09T12:18:35.598Z,48.40
2018-02-09T12:21:03.314Z,48.40
2018-02-09T12:23:31.463Z,48.20
2018-02-09T12:25:59.026Z,48.20
2018-02-09T12:28:26.659Z,48.30
2018-02-09T12:30:55.566Z,48.10
2018-02-09T12:33:23.186Z,48.00
2018-02-09T12:35:50.886Z,48.10
2018-02-09T12:38:19.506Z,48.00
2018-02-09T12:40:47.964Z,47.90
2018-02-09T12:43:15.502Z,47.90
2018-02-09T12:45:43.093Z,47.90
2018-02-09T12:48:11.417Z,47.90
2018-02-09T12:50:39.229Z,47.90
2018-02-09T12:53:06.750Z,47.90
2018-02-09T12:55:34.435Z,47.90
2018-02-09T12:58:02.116Z,47.90
2018-02-09T13:00:29.686Z,47.90
2018-02-09T13:02:57.253Z,47.80
2018-02-09T13:05:25.453Z,47.70
2018-02-09T13:07:53.134Z,47.70
2018-02-09T13:10:20.730Z,47.80
2018-02-09T13:13:00.296Z,47.80
2018-02-09T13:15:27.927Z,47.50
2018-02-09T13:17:55.476Z,47.40
2018-02-09T13:20:23.163Z,47.40
2018-02-09T13:23:03.121Z,47.30
2018-02-09T13:25:30.728Z,47.30
2018-02-09T13:27:58.378Z,47.30
2018-02-09T13:30:26.047Z,47.20
2018-02-09T13:33:06.433Z,47.20
2018-02-09T13:35:34.059Z,47.20
2018-02-09T13:38:01.737Z,47.00
2018-02-09T13:40:29.404Z,47.10
2018-02-09T13:42:57.010Z,47.20
2018-02-09T13:45:24.633Z,47.20
2018-02-09T13:47:52.193Z,47.10
2018-02-09T13:50:19.802Z,47.10
2018-02-09T13:52:47.445Z,47.20
2018-02-09T13:55:15.193Z,47.10
2018-02-09T13:57:43.166Z,47.00
2018-02-09T14:00:10.834Z,47.00
2018-02-09T14:02:38.479Z,46.90
2018-02-09T14:05:06.610Z,46.90
2018-02-09T14:07:34.230Z,47.00
2018-02-09T14:10:01.934Z,46.90
2018-02-09T14:12:29.562Z,46.90
2018-02-09T14:14:57.232Z,47.00
2018-02-09T14:17:24.903Z,46.90
2018-02-09T14:19:52.534Z,46.90
2018-02-09T14:22:20.224Z,46.90
2018-02-09T14:24:47.906Z,46.90
2018-02-09T14:27:15.602Z,46.80
2018-02-09T14:29:43.607Z,46.70
2018-02-09T14:32:11.260Z,46.70
2018-02-09T14:34:38.924Z,46.70
2018-02-09T14:37:06.630Z,46.90
2018-02-09T14:39:34.324Z,46.80
2018-02-09T14:42:01.900Z,46.60
2018-02-09T14:44:29.614Z,46.60
2018-02-09T14:46:57.206Z,46.50
2018-02-09T14:49:25.734Z,46.50
2018-02-09T14:51:54.611Z,46.40
2018-02-09T14:54:22.678Z,46.50
2018-02-09T14:56:50.753Z,46.40
2018-02-09T14:59:18.601Z,46.30
2018-02-09T15:01:46.318Z,46.30
2018-02-09T15:04:14.346Z,46.30
2018-02-09T15:06:42.066Z,46.30
2018-02-09T15:09:10.082Z,46.30
2018-02-09T15:11:37.770Z,46.30
2018-02-09T15:14:05.393Z,46.30
2018-02-09T15:16:33.055Z,46.10
2018-02-09T15:19:00.735Z,46.10
2018-02-09T15:21:28.380Z,46.10
2018-02-09T15:23:56.028Z,46.10
2018-02-09T15:26:23.836Z,46.00
2018-02-09T15:28:51.507Z,46.00
2018-02-09T15:31:19.070Z,46.00
2018-02-09T15:33:47.171Z,45.90
2018-02-09T15:36:19.620Z,45.90
2018-02-09T15:38:47.419Z,45.90
2018-02-09T15:41:14.973Z,45.90
2018-02-09T15:43:42.595Z,45.80
2018-02-09T15:46:10.189Z,45.80
2018-02-09T15:48:43.710Z,45.80
2018-02-09T15:51:11.348Z,45.70
2018-02-09T15:53:39.007Z,45.70
2018-02-09T15:56:07.154Z,45.70
2018-02-09T15:58:34.741Z,45.60
2018-02-09T16:01:02.417Z,45.50
2018-02-09T16:03:30.046Z,45.50
2018-02-09T16:05:57.771Z,45.50
2018-02-09T16:08:25.378Z,45.50
2018-02-09T16:10:53.002Z,45.50
2018-02-09T16:13:20.759Z,45.70
2018-02-09T16:15:48.360Z,45.50
2018-02-09T16:18:16.025Z,45.50
2018-02-09T16:20:43.689Z,45.50
2018-02-09T16:23:13.637Z,45.50
2018-02-09T16:25:41.338Z,45.50
2018-02-09T16:28:09.342Z,45.30
2018-02-09T16:30:37.056Z,45.30
2018-02-09T16:33:04.652Z,45.20
2018-02-09T16:35:32.303Z,45.20
2018-02-09T16:37:59.975Z,45.20
2018-02-09T16:40:27.662Z,45.10
2018-02-09T16:42:55.731Z,45.20
2018-02-09T16:45:23.378Z,45.20
2018-02-09T16:47:51.010Z,45.20
2018-02-09T16:50:18.728Z,45.20
2018-02-09T16:52:46.340Z,45.20
2018-02-09T16:55:14.017Z,45.10
2018-02-09T16:57:41.722Z,45.10
2018-02-09T17:00:09.334Z,45.00
2018-02-09T17:02:36.990Z,45.10
2018-02-09T17:05:04.671Z,45.00
2018-02-09T17:07:32.327Z,45.00
2018-02-09T17:10:00.009Z,44.90
2018-02-09T17:12:27.624Z,44.80
2018-02-09T17:14:55.300Z,44.90
2018-02-09T17:17:22.983Z,44.80
2018-02-09T17:19:50.608Z,44.90
2018-02-09T17:22:18.534Z,44.80
2018-02-09T17:24:46.186Z,44.80
2018-02-09T17:27:13.817Z,44.90
2018-02-09T17:29:41.457Z,44.80
2018-02-09T17:32:09.138Z,44.90
2018-02-09T17:34:36.791Z,44.80
2018-02-09T17:37:04.484Z,44.80
2018-02-09T17:39:32.223Z,44.70
2018-02-09T17:41:59.816Z,44.70
2018-02-09T17:44:27.498Z,44.70
2018-02-09T17:46:55.127Z,44.60
2018-02-09T17:49:22.779Z,44.60
2018-02-09T17:51:50.441Z,44.60
2018-02-09T17:54:18.092Z,44.60
2018-02-09T17:56:45.795Z,44.60
2018-02-09T17:59:13.432Z,44.70
2018-02-09T18:01:41.464Z,45.30
2018-02-09T18:04:09.129Z,45.30
2018-02-09T18:06:36.769Z,45.80
2018-02-09T18:09:04.475Z,46.30
2018-02-09T18:11:32.087Z,46.80
2018-02-09T18:13:59.773Z,47.20
2018-02-09T18:16:27.410Z,47.60
2018-02-09T18:19:01.868Z,47.90
2018-02-09T18:21:36.208Z,48.30
2018-02-09T18:24:06.854Z,48.50
2018-02-09T18:26:39.614Z,48.80
2018-02-09T18:29:07.646Z,48.90
2018-02-09T18:31:35.315Z,49.20
2018-02-09T18:34:03.091Z,49.40
2018-02-09T18:36:31.790Z,49.40
2018-02-09T18:38:59.394Z,49.60
2018-02-09T18:41:26.986Z,49.70
2018-02-09T18:43:54.708Z,49.80
2018-02-09T18:46:22.854Z,50.00
2018-02-09T18:48:50.458Z,50.00
2018-02-09T18:51:18.015Z,50.20
2018-02-09T18:53:45.748Z,50.30
2018-02-09T18:56:13.414Z,50.40
2018-02-09T18:58:40.992Z,50.40
2018-02-09T19:01:08.669Z,50.50
2018-02-09T19:03:36.310Z,50.60
2018-02-09T19:06:07.727Z,50.70
2018-02-09T19:08:35.346Z,50.70
2018-02-09T19:11:03.031Z,50.80
2018-02-09T19:13:31.094Z,50.90
2018-02-09T19:15:58.768Z,50.90
2018-02-09T19:18:26.411Z,51.10
2018-02-09T19:20:54.039Z,51.10
2018-02-09T19:23:21.741Z,51.20
2018-02-09T19:25:49.330Z,51.20
2018-02-09T19:28:17.154Z,51.30
2018-02-09T19:30:44.742Z,51.40
2018-02-09T19:33:12.545Z,51.40
2018-02-09T19:35:40.176Z,51.50
2018-02-09T19:38:08.059Z,51.60
2018-02-09T19:40:35.608Z,51.60
2018-02-09T19:43:03.559Z,51.70
2018-02-09T19:45:31.106Z,51.70
2018-02-09T19:48:02.218Z,51.70
2018-02-09T19:50:29.862Z,51.70
2018-02-09T19:52:57.509Z,51.80
2018-02-09T19:55:25.218Z,51.80
2018-02-09T19:57:52.881Z,51.90
2018-02-09T20:00:20.496Z,51.90
2018-02-09T20:02:48.019Z,52.00
2018-02-09T20:05:15.658Z,52.00
2018-02-09T20:07:43.283Z,52.00
2018-02-09T20:10:10.946Z,52.00
2018-02-09T20:12:38.738Z,52.10
2018-02-09T20:15:06.410Z,52.10
2018-02-09T20:17:33.893Z,52.20
2018-02-09T20:20:01.500Z,52.30
2018-02-09T20:22:29.029Z,52.30
2018-02-09T20:24:56.720Z,52.30
2018-02-09T20:27:24.375Z,52.40
2018-02-09T20:29:52.093Z,52.50
2018-02-09T20:32:20.104Z,52.60
2018-02-09T20:34:47.718Z,52.60
2018-02-09T20:37:15.441Z,52.70
2018-02-09T20:39:43.102Z,52.70
2018-02-09T20:42:10.704Z,52.70
2018-02-09T20:44:38.318Z,52.70
2018-02-09T20:47:05.906Z,52.80
2018-02-09T20:49:33.510Z,52.80
2018-02-09T20:52:01.272Z,52.80
2018-02-09T20:54:28.846Z,52.80
2018-02-09T20:56:56.521Z,52.80
2018-02-09T20:59:24.210Z,52.80
2018-02-09T21:01:51.865Z,52.80
2018-02-09T21:04:19.503Z,52.90
2018-02-09T21:06:47.231Z,52.90
2018-02-09T21:09:14.792Z,53.00
2018-02-09T21:11:42.473Z,53.00
2018-02-09T21:14:10.180Z,53.00
2018-02-09T21:16:37.781Z,53.10
2018-02-09T21:19:05.444Z,53.30
2018-02-09T21:21:33.096Z,53.30
2018-02-09T21:24:00.767Z,53.40
2018-02-09T21:26:28.430Z,53.50
2018-02-09T21:29:01.838Z,53.50
2018-02-09T21:31:29.498Z,53.60
2018-02-09T21:33:57.168Z,53.60
2018-02-09T21:36:24.793Z,53.60
2018-02-09T21:38:52.471Z,53.60
2018-02-09T21:41:20.123Z,53.70
2018-02-09T21:43:47.782Z,53.70
2018-02-09T21:46:15.826Z,53.80
2018-02-09T21:48:44.148Z,53.80
2018-02-09T21:51:11.803Z,53.80
2018-02-09T21:53:40.111Z,53.90
2018-02-09T21:56:08.126Z,53.90
2018-02-09T21:58:37.866Z,54.00
2018-02-09T22:01:05.494Z,54.00
2018-02-09T22:03:33.499Z,54.00
2018-02-09T22:06:01.069Z,54.10
2018-02-09T22:08:28.681Z,54.10
2018-02-09T22:10:56.623Z,54.10
2018-02-09T22:13:24.323Z,54.10
2018-02-09T22:15:51.878Z,54.20
2018-02-09T22:18:19.522Z,54.20
2018-02-09T22:20:47.378Z,54.30
2018-02-09T22:23:14.882Z,54.30
2018-02-09T22:25:42.490Z,54.30
2018-02-09T22:28:13.833Z,54.50
2018-02-09T22:30:41.808Z,54.50
2018-02-09T22:33:09.362Z,54.50
2018-02-09T22:35:36.876Z,54.60
2018-02-09T22:38:04.758Z,54.60
2018-02-09T22:40:32.370Z,54.60
2018-02-09T22:42:59.870Z,54.70
2018-02-09T22:45:27.453Z,54.70
2018-02-09T22:47:55.146Z,54.70
2018-02-09T22:50:22.857Z,54.80
2018-02-09T22:52:50.460Z,54.80
2018-02-09T22:55:18.006Z,54.80
2018-02-09T22:57:45.605Z,54.80
2018-02-09T23:00:13.233Z,54.80
2018-02-09T23:02:40.748Z,54.80
2018-02-09T23:05:08.751Z,54.80
2018-02-09T23:07:36.316Z,54.80
2018-02-09T23:10:04.298Z,54.90
2018-02-09T23:12:31.994Z,54.90
2018-02-09T23:14:59.643Z,54.90
2018-02-09T23:17:27.317Z,54.90
2018-02-09T23:19:54.951Z,54.90
2018-02-09T23:22:22.659Z,54.90
2018-02-09T23:24:50.271Z,54.90
2018-02-09T23:27:17.915Z,54.90
2018-02-09T23:29:45.455Z,54.90
2018-02-09T23:32:13.086Z,55.00
2018-02-09T23:34:40.699Z,55.10
2018-02-09T23:37:08.236Z,55.10
2018-02-09T23:39:35.841Z,55.10
2018-02-09T23:42:03.503Z,55.10
2018-02-09T23:44:31.138Z,55.10
2018-02-09T23:46:58.798Z,55.10
2018-02-09T23:49:26.731Z,55.20
2018-02-09T23:51:54.339Z,55.20
2018-02-09T23:54:21.987Z,55.30
2018-02-09T23:56:49.638Z,55.30
2018-02-09T23:59:17.155Z,55.30
